Terminal Aerodrome Forecast
Issued by NWS

Home | Current Version | Previous Version | Text Only | Print | Product List | Glossary On
Versions: 1 2 3 4 5 6 7 8 9 10 11 12 13 14 15 16
586
FTUS43 KOAX 240553
TAFCDR
TAF
KCDR 240553Z 2406/2506 04015G25KT 1SM -SN BR SCT007 OVC025
     FM241000 02013KT 4SM -SN BR BKN012 OVC025
     FM241600 02008KT P6SM OVC030
     FM242100 32005KT P6SM OVC050=

USA.gov is the U.S. government's official web portal to all federal, state and local government web resources and services.